Vernalis, California
Current Conditions -  °F | °C
As of 5:36 AM on Friday 28 Nov 2014 (Local Time) from KMOD Reporting Station
Haze Haze  
Wind Chill: 40°   Ceiling: Unl
Heat Index: 40°   Visibility: 1mi
Dew Point: 37°   Wind: 3mph
Humidity: 89%   Direction: 110°ESE
Pressure: 29.99"   Gusts: NA
Location:  37.61°N, 121.26°W
Report Text: KMOD 281336Z AUTO 11003KT 1SM BR CLR 04/03 A2999 RMK AO2 T00440028
Loading
Personal Weather Stations






























Interactive Weather Map New forecast layout! Learn more

10-Day Weather Forecast

Advertisements
Track Severe Weather on mobile